Time;durP1;ratioP1;P1;durP2;ratioP2;P2;SDS_P1;SDS_P2;PMS_P1;PMS_P2;Temp;Humidity;BMP_temperature;BMP_pressure;BME280_temperature;BME280_humidity;BME280_pressure;Samples;Min_cycle;Max_cycle;Signal;HPM_P1;HPM_P2
2021/05/16 00:01:12;;;;;;;4.18;2.00;;;13.40;90.20;;;;;;5016402;28;20069;-87
2021/05/16 00:03:39;;;;;;;3.60;2.08;;;13.30;90.10;;;;;;5017035;28;20111;-87
2021/05/16 00:06:08;;;;;;;4.13;2.17;;;13.30;90.10;;;;;;5017035;28;20053;-87
2021/05/16 00:08:34;;;;;;;3.28;2.08;;;13.20;90.20;;;;;;5016029;28;20057;-87
2021/05/16 00:11:00;;;;;;;4.25;2.47;;;13.20;90.20;;;;;;5016802;28;20053;-87
2021/05/16 00:13:26;;;;;;;4.43;2.55;;;13.20;90.20;;;;;;5016833;28;20054;-87
2021/05/16 00:15:52;;;;;;;4.13;2.40;;;13.20;90.20;;;;;;5015978;28;20134;-88
2021/05/16 00:18:18;;;;;;;3.83;2.17;;;13.20;90.10;;;;;;5016886;28;20132;-87
2021/05/16 00:20:44;;;;;;;3.85;2.10;;;13.20;90.10;;;;;;5016864;28;20077;-86
2021/05/16 00:23:10;;;;;;;3.58;2.38;;;13.20;90.10;;;;;;5015833;28;20200;-87
2021/05/16 00:25:37;;;;;;;3.65;2.10;;;13.10;90.10;;;;;;5016690;28;20050;-87
2021/05/16 00:28:03;;;;;;;3.65;2.20;;;13.10;90.10;;;;;;5016323;28;20082;-87
2021/05/16 00:30:30;;;;;;;3.60;2.20;;;13.10;90.20;;;;;;5015619;28;20045;-87
2021/05/16 00:32:57;;;;;;;4.32;2.58;;;13.10;90.20;;;;;;5016577;28;20133;-86
2021/05/16 00:35:27;;;;;;;5.05;2.45;;;13.10;90.50;;;;;;5016510;28;20082;-87
2021/05/16 00:37:53;;;;;;;4.20;2.65;;;13.10;90.10;;;;;;5015702;28;20056;-86
2021/05/16 00:40:19;;;;;;;4.70;2.60;;;13.00;90.10;;;;;;5016257;28;20190;-86
2021/05/16 00:42:45;;;;;;;3.92;2.53;;;13.00;90.10;;;;;;5015008;28;20053;-87
2021/05/16 00:45:20;;;;;;;4.72;2.70;;;13.00;90.10;;;;;;5015216;28;20056;-86
2021/05/16 00:47:49;;;;;;;4.25;2.60;;;13.00;90.20;;;;;;5016163;28;20061;-86
2021/05/16 00:50:17;;;;;;;3.70;2.40;;;13.00;90.20;;;;;;5015807;28;20401;-86
2021/05/16 00:52:42;;;;;;;4.57;2.67;;;12.90;90.30;;;;;;5016258;28;20049;-86
2021/05/16 00:55:10;;;;;;;4.20;2.72;;;12.90;90.20;;;;;;5015959;28;20048;-87
2021/05/16 00:57:36;;;;;;;4.82;2.63;;;12.90;90.20;;;;;;5015106;28;20557;-86
2021/05/16 01:00:06;;;;;;;5.13;2.85;;;12.90;90.10;;;;;;5016024;28;20046;-86
2021/05/16 01:02:32;;;;;;;3.88;2.65;;;12.90;90.20;;;;;;5015753;28;20050;-86
2021/05/16 01:04:57;;;;;;;4.40;3.00;;;12.90;90.20;;;;;;5015274;28;20096;-85
2021/05/16 01:07:23;;;;;;;4.57;3.00;;;12.80;90.30;;;;;;5015895;28;20507;-86
2021/05/16 01:09:49;;;;;;;4.68;3.10;;;12.80;90.50;;;;;;5015955;28;20053;-86
2021/05/16 01:12:16;;;;;;;4.20;2.90;;;12.80;90.40;;;;;;5015018;28;20453;-86
2021/05/16 01:14:46;;;;;;;5.30;3.30;;;12.80;90.30;;;;;;5015696;28;20505;-86
2021/05/16 01:17:13;;;;;;;4.55;3.35;;;12.80;90.40;;;;;;5015856;28;20107;-86
2021/05/16 01:19:39;;;;;;;4.50;3.03;;;12.80;90.50;;;;;;5014997;28;20049;-86
2021/05/16 01:22:06;;;;;;;5.22;3.15;;;12.80;90.50;;;;;;5015786;28;20054;-86
2021/05/16 01:24:33;;;;;;;5.40;3.50;;;12.70;90.50;;;;;;5015367;28;20045;-86
2021/05/16 01:27:00;;;;;;;4.88;3.47;;;12.70;90.40;;;;;;5014828;28;20103;-86
2021/05/16 01:29:27;;;;;;;5.30;3.80;;;12.70;90.30;;;;;;5015535;28;20120;-86
2021/05/16 01:31:53;;;;;;;5.68;4.07;;;12.60;90.30;;;;;;5015541;28;20133;-86
2021/05/16 01:34:21;;;;;;;5.75;4.30;;;12.60;90.30;;;;;;5014650;28;20402;-86
2021/05/16 01:36:47;;;;;;;6.32;4.28;;;12.60;90.20;;;;;;5015487;28;20057;-86
2021/05/16 01:39:13;;;;;;;5.65;4.40;;;12.60;90.00;;;;;;5015334;28;20425;-86
2021/05/16 01:41:39;;;;;;;6.78;5.88;;;12.50;90.00;;;;;;5014476;28;20049;-86
2021/05/16 01:44:08;;;;;;;7.18;5.82;;;12.50;89.80;;;;;;5015141;28;20053;-86
2021/05/16 01:46:33;;;;;;;5.82;4.68;;;12.50;89.50;;;;;;5014492;28;20042;-86
2021/05/16 01:48:59;;;;;;;6.97;5.82;;;12.50;90.00;;;;;;5015315;28;20054;-86
2021/05/16 01:51:25;;;;;;;10.50;7.22;;;12.40;89.70;;;;;;5015272;28;20129;-86
2021/05/16 01:53:51;;;;;;;7.70;6.70;;;12.40;89.70;;;;;;5013931;28;20576;-86
2021/05/16 01:56:26;;;;;;;9.90;7.60;;;12.40;89.80;;;;;;5014981;28;20057;-86
2021/05/16 01:58:52;;;;;;;6.03;4.90;;;12.30;89.50;;;;;;5015346;28;20474;-86
2021/05/16 02:01:18;;;;;;;6.57;5.00;;;12.30;90.10;;;;;;5014483;28;20492;-87
2021/05/16 02:03:45;;;;;;;8.63;6.35;;;12.30;90.30;;;;;;5015105;28;20057;-87
2021/05/16 02:06:13;;;;;;;8.15;5.47;;;12.30;90.30;;;;;;5014906;28;20042;-86
2021/05/16 02:08:40;;;;;;;8.23;5.35;;;12.30;90.30;;;;;;5014399;28;20516;-86
2021/05/16 02:11:07;;;;;;;8.60;7.03;;;12.30;90.50;;;;;;5015336;28;20050;-87
2021/05/16 02:13:36;;;;;;;6.68;5.55;;;12.20;90.30;;;;;;5014795;28;20046;-86
2021/05/16 02:16:03;;;;;;;7.38;6.28;;;12.20;90.30;;;;;;5013600;28;20053;-86
2021/05/16 02:18:28;;;;;;;10.07;8.98;;;12.20;90.30;;;;;;5014673;28;20076;-87
2021/05/16 02:20:54;;;;;;;7.25;6.32;;;12.20;90.10;;;;;;5014371;28;20490;-86
2021/05/16 02:23:20;;;;;;;9.23;7.53;;;12.20;90.30;;;;;;5013643;28;20049;-86
2021/05/16 02:25:45;;;;;;;8.40;6.97;;;12.20;90.30;;;;;;5014479;28;20482;-86
2021/05/16 02:28:11;;;;;;;7.32;6.55;;;12.20;90.30;;;;;;5014486;28;20061;-86
2021/05/16 02:30:37;;;;;;;12.82;10.90;;;12.20;90.30;;;;;;5013397;28;20046;-86
2021/05/16 02:33:04;;;;;;;11.52;10.32;;;12.10;90.20;;;;;;5014346;28;20053;-86
2021/05/16 02:35:30;;;;;;;8.50;7.50;;;12.10;90.30;;;;;;5014136;28;20121;-86
2021/05/16 02:37:56;;;;;;;10.05;8.80;;;12.10;90.50;;;;;;5013589;28;20529;-86
2021/05/16 02:40:21;;;;;;;10.23;9.02;;;12.10;90.60;;;;;;5014142;28;20053;-86
2021/05/16 02:42:47;;;;;;;10.70;9.20;;;12.10;90.50;;;;;;5013518;28;20056;-87
2021/05/16 02:45:13;;;;;;;11.05;9.30;;;12.10;90.60;;;;;;5013976;28;20482;-87
2021/05/16 02:47:39;;;;;;;14.73;13.02;;;12.10;90.70;;;;;;5013862;28;20524;-87
2021/05/16 02:50:06;;;;;;;13.55;11.65;;;12.10;90.70;;;;;;5013176;28;20482;-86
2021/05/16 02:52:32;;;;;;;10.45;9.35;;;12.10;90.60;;;;;;5013975;28;20049;-86
2021/05/16 02:54:58;;;;;;;12.38;9.50;;;12.00;90.70;;;;;;5013944;28;20056;-86
2021/05/16 02:57:24;;;;;;;11.70;10.20;;;12.10;90.70;;;;;;5012879;28;20473;-87
2021/05/16 02:59:49;;;;;;;14.55;13.05;;;12.00;90.60;;;;;;5013879;28;20486;-86
2021/05/16 03:02:16;;;;;;;11.27;9.23;;;12.00;90.60;;;;;;5013744;28;20054;-86
2021/05/16 03:04:42;;;;;;;14.63;13.02;;;12.00;90.70;;;;;;5012311;28;20057;-86
2021/05/16 03:07:08;;;;;;;14.85;13.00;;;12.00;90.70;;;;;;5013816;28;20445;-87
2021/05/16 03:09:35;;;;;;;15.90;12.27;;;12.00;90.70;;;;;;5013842;28;20054;-86
2021/05/16 03:12:05;;;;;;;12.40;10.45;;;12.00;90.60;;;;;;5011659;28;20497;-86
2021/05/16 03:14:32;;;;;;;13.50;11.30;;;12.00;90.80;;;;;;5013857;28;20124;-86
2021/05/16 03:17:01;;;;;;;12.15;10.85;;;12.00;90.90;;;;;;5013854;28;20045;-87
2021/05/16 03:19:27;;;;;;;12.18;10.93;;;12.00;91.00;;;;;;5012687;28;20045;-87
2021/05/16 03:21:54;;;;;;;13.63;12.13;;;12.00;91.00;;;;;;5013682;28;20429;-86
2021/05/16 03:24:19;;;;;;;16.95;14.25;;;12.00;91.00;;;;;;5013807;28;20057;-87
2021/05/16 03:26:45;;;;;;;13.98;12.40;;;11.90;90.80;;;;;;5012876;28;20042;-86
2021/05/16 03:29:12;;;;;;;15.07;13.32;;;11.90;90.80;;;;;;5013812;28;20046;-87
2021/05/16 03:31:37;;;;;;;16.05;13.68;;;11.90;90.90;;;;;;5013283;28;20077;-86
2021/05/16 03:34:05;;;;;;;13.77;12.30;;;11.90;90.80;;;;;;5012507;28;20045;-85
2021/05/16 03:36:30;;;;;;;16.15;13.88;;;11.90;90.70;;;;;;5013514;28;20060;-86
2021/05/16 03:38:56;;;;;;;14.77;12.82;;;11.90;90.80;;;;;;5013547;28;20050;-86
2021/05/16 03:41:22;;;;;;;16.40;13.70;;;11.90;91.00;;;;;;5012657;28;20097;-85
2021/05/16 03:43:49;;;;;;;16.67;13.38;;;11.80;90.80;;;;;;5013351;28;20096;-86
2021/05/16 03:46:15;;;;;;;14.60;12.85;;;11.80;90.80;;;;;;5012624;28;20156;-86
2021/05/16 03:48:41;;;;;;;14.23;11.82;;;11.80;90.70;;;;;;5013236;28;20053;-86
2021/05/16 03:51:07;;;;;;;15.07;12.82;;;11.80;90.70;;;;;;5013416;28;20053;-86
2021/05/16 03:53:33;;;;;;;15.15;13.30;;;11.80;90.70;;;;;;5012629;28;20050;-86
2021/05/16 03:55:59;;;;;;;12.50;11.20;;;11.80;90.90;;;;;;5012990;28;20057;-86
2021/05/16 03:58:24;;;;;;;15.75;13.27;;;11.80;91.30;;;;;;5013232;28;20116;-86
2021/05/16 04:00:50;;;;;;;16.27;12.82;;;11.80;91.10;;;;;;5012318;28;20049;-86
2021/05/16 04:03:16;;;;;;;14.82;12.60;;;11.80;91.00;;;;;;5013244;28;20049;-86
2021/05/16 04:05:42;;;;;;;17.38;13.13;;;11.80;91.00;;;;;;5012163;28;20449;-86
2021/05/16 04:08:07;;;;;;;14.55;11.90;;;11.70;91.00;;;;;;5012436;28;20413;-88
2021/05/16 04:10:33;;;;;;;18.17;13.85;;;11.70;91.00;;;;;;5013415;28;20045;-85
2021/05/16 04:12:59;;;;;;;19.10;14.63;;;11.70;90.90;;;;;;5013405;28;20053;-85
2021/05/16 04:15:24;;;;;;;20.65;13.68;;;11.70;90.90;;;;;;5012345;28;20084;-86
2021/05/16 04:17:50;;;;;;;16.52;13.40;;;11.70;90.80;;;;;;5016612;28;20475;-86
2021/05/16 04:20:16;;;;;;;17.75;13.32;;;11.60;90.80;;;;;;5016732;28;20081;-86
2021/05/16 04:22:42;;;;;;;17.98;13.63;;;11.70;91.00;;;;;;5016031;28;20477;-86
2021/05/16 04:25:08;;;;;;;27.25;17.17;;;11.70;91.00;;;;;;5016777;28;20052;-86
2021/05/16 04:27:34;;;;;;;18.95;13.57;;;11.70;91.00;;;;;;5016774;28;20053;-86
2021/05/16 04:30:00;;;;;;;19.13;14.32;;;11.70;91.10;;;;;;5015589;28;20115;-86
2021/05/16 04:32:25;;;;;;;23.35;16.40;;;11.60;90.90;;;;;;5016374;28;20056;-86
2021/05/16 04:34:51;;;;;;;21.17;14.75;;;11.60;90.90;;;;;;5016502;28;20050;-87
2021/05/16 04:37:17;;;;;;;19.13;14.20;;;11.60;90.90;;;;;;5015630;28;20080;-86
2021/05/16 04:39:42;;;;;;;18.17;14.57;;;11.60;90.90;;;;;;5016443;28;20077;-86
2021/05/16 04:42:08;;;;;;;16.67;13.57;;;11.70;91.20;;;;;;5016326;28;20053;-86
2021/05/16 04:44:34;;;;;;;24.35;17.40;;;11.60;91.30;;;;;;5015435;28;20454;-86
2021/05/16 04:47:00;;;;;;;21.13;15.15;;;11.70;91.20;;;;;;5016198;28;20054;-86
2021/05/16 04:49:25;;;;;;;20.08;14.85;;;11.70;91.30;;;;;;5015541;28;20045;-85
2021/05/16 04:51:51;;;;;;;24.45;17.63;;;11.70;91.20;;;;;;5016272;28;20075;-85
2021/05/16 04:54:17;;;;;;;24.08;17.08;;;11.70;91.10;;;;;;5016150;28;20711;-85
2021/05/16 04:56:43;;;;;;;23.27;15.77;;;11.70;91.10;;;;;;5014946;28;20061;-87
2021/05/16 04:59:09;;;;;;;30.52;18.85;;;11.70;91.20;;;;;;5016132;28;20200;-86
2021/05/16 05:01:37;;;;;;;28.30;17.98;;;11.70;91.20;;;;;;5015858;28;20049;-86
2021/05/16 05:04:03;;;;;;;23.65;16.00;;;11.70;91.20;;;;;;5015291;28;20050;-87
2021/05/16 05:06:29;;;;;;;24.90;17.25;;;11.60;91.20;;;;;;5016025;28;20482;-87
2021/05/16 05:08:57;;;;;;;25.05;17.33;;;11.60;91.10;;;;;;5016039;28;20046;-86
2021/05/16 05:11:22;;;;;;;25.52;17.38;;;11.70;91.20;;;;;;5015020;28;20056;-86
2021/05/16 05:13:48;;;;;;;23.00;16.42;;;11.70;91.20;;;;;;5015600;28;20132;-86
2021/05/16 05:16:14;;;;;;;24.30;17.27;;;11.70;91.20;;;;;;5015893;28;20046;-86
2021/05/16 05:18:39;;;;;;;24.55;16.73;;;11.60;91.20;;;;;;5015037;28;20437;-86
2021/05/16 05:21:07;;;;;;;23.73;17.05;;;11.60;91.20;;;;;;5015731;28;20051;-86
2021/05/16 05:23:33;;;;;;;21.33;16.30;;;11.60;91.30;;;;;;5015346;28;20049;-86
2021/05/16 05:25:59;;;;;;;25.40;16.25;;;11.60;91.40;;;;;;5014625;28;20046;-86
2021/05/16 05:28:25;;;;;;;24.23;16.88;;;11.60;91.30;;;;;;5014946;28;20482;-87
2021/05/16 05:30:50;;;;;;;22.67;16.13;;;11.60;91.40;;;;;;5015430;28;20049;-86
2021/05/16 05:33:18;;;;;;;19.58;15.80;;;11.70;91.50;;;;;;5014450;28;20053;-86
2021/05/16 05:35:44;;;;;;;19.08;15.50;;;11.70;91.50;;;;;;5015315;28;20062;-87
2021/05/16 05:38:10;;;;;;;21.20;16.48;;;11.70;91.50;;;;;;5015344;28;20443;-86
2021/05/16 05:40:36;;;;;;;20.67;15.18;;;11.70;91.60;;;;;;5014597;28;20100;-87
2021/05/16 05:43:02;;;;;;;20.05;14.63;;;11.70;91.50;;;;;;5014863;28;20054;-87
2021/05/16 05:45:28;;;;;;;22.30;15.52;;;11.70;91.50;;;;;;5017220;28;20050;-86
2021/05/16 05:47:53;;;;;;;25.20;17.25;;;11.70;91.60;;;;;;5014434;28;20052;-88
2021/05/16 05:50:19;;;;;;;23.00;16.27;;;11.70;91.70;;;;;;5015016;28;20046;-88
2021/05/16 05:52:45;;;;;;;23.05;15.73;;;11.70;91.70;;;;;;5013996;28;20501;-87
2021/05/16 05:55:11;;;;;;;23.13;15.50;;;11.70;91.60;;;;;;5014576;28;20096;-86
2021/05/16 05:57:37;;;;;;;20.52;15.73;;;11.70;91.60;;;;;;5014623;28;20058;-87
2021/05/16 06:00:04;;;;;;;24.33;16.45;;;11.70;91.60;;;;;;5014173;28;20054;-87
2021/05/16 06:02:30;;;;;;;21.23;14.93;;;11.70;91.70;;;;;;5014817;28;20054;-87
2021/05/16 06:04:56;;;;;;;21.15;15.48;;;11.70;91.60;;;;;;5014838;28;20517;-87
2021/05/16 06:07:21;;;;;;;23.70;15.90;;;11.80;91.70;;;;;;5014084;28;20049;-87
2021/05/16 06:09:47;;;;;;;21.88;15.70;;;11.80;91.70;;;;;;5014808;28;20413;-87
2021/05/16 06:12:14;;;;;;;20.83;15.80;;;11.80;91.70;;;;;;5014538;28;20092;-87
2021/05/16 06:14:40;;;;;;;21.33;15.63;;;11.80;91.80;;;;;;5013875;28;20092;-87
2021/05/16 06:17:08;;;;;;;20.58;14.93;;;11.80;91.80;;;;;;5014685;28;20053;-87
2021/05/16 06:19:34;;;;;;;23.48;15.85;;;11.90;91.80;;;;;;5014582;28;20050;-88
2021/05/16 06:22:00;;;;;;;21.60;15.20;;;11.90;91.80;;;;;;5013404;28;20060;-88
2021/05/16 06:24:25;;;;;;;21.00;15.25;;;11.90;91.70;;;;;;5014642;28;20057;-86
2021/05/16 06:26:51;;;;;;;17.05;14.20;;;11.90;91.70;;;;;;5014361;28;20053;-87
2021/05/16 06:29:17;;;;;;;17.45;14.32;;;11.90;91.70;;;;;;5013564;28;20050;-87
2021/05/16 06:31:43;;;;;;;18.90;14.35;;;11.90;91.60;;;;;;5014479;28;20061;-87
2021/05/16 06:34:10;;;;;;;24.13;15.20;;;12.00;91.60;;;;;;5014402;28;20104;-87
2021/05/16 06:36:36;;;;;;;22.77;15.63;;;12.00;91.70;;;;;;5013596;28;20050;-86
2021/05/16 06:39:04;;;;;;;24.30;15.73;;;12.00;91.70;;;;;;5013481;28;20498;-87
2021/05/16 06:41:29;;;;;;;23.00;15.82;;;12.00;91.70;;;;;;5013874;28;20125;-87
2021/05/16 06:43:55;;;;;;;22.17;15.32;;;12.00;91.70;;;;;;5013481;28;20501;-87
2021/05/16 06:46:21;;;;;;;17.85;14.18;;;12.00;91.60;;;;;;5014193;28;20050;-87
2021/05/16 06:48:46;;;;;;;23.20;15.27;;;12.00;91.60;;;;;;5014220;28;20054;-86
2021/05/16 06:51:13;;;;;;;28.50;16.33;;;12.00;91.60;;;;;;5013350;28;20050;-87
2021/05/16 06:53:39;;;;;;;29.15;15.95;;;12.10;91.60;;;;;;5013781;28;20061;-87
2021/05/16 06:56:08;;;;;;;22.42;15.68;;;12.10;91.60;;;;;;5012957;28;20062;-87
2021/05/16 06:58:34;;;;;;;22.80;16.98;;;12.10;91.60;;;;;;5014039;28;20056;-87
2021/05/16 07:01:00;;;;;;;26.70;14.73;;;12.10;91.60;;;;;;5013881;28;20042;-86
2021/05/16 07:03:26;;;;;;;28.00;16.40;;;12.10;91.60;;;;;;5013153;28;20214;-87
2021/05/16 07:05:51;;;;;;;24.05;14.43;;;12.10;91.50;;;;;;5013817;28;20142;-87
2021/05/16 07:08:17;;;;;;;23.48;14.80;;;12.10;91.50;;;;;;5013856;28;20413;-87
2021/05/16 07:10:44;;;;;;;25.85;14.40;;;12.20;91.50;;;;;;5012868;28;20041;-86
2021/05/16 07:13:10;;;;;;;20.15;13.90;;;12.10;91.40;;;;;;5013932;28;20072;-87
2021/05/16 07:15:36;;;;;;;18.35;13.27;;;12.20;91.50;;;;;;5013846;28;20050;-87
2021/05/16 07:18:02;;;;;;;23.98;13.45;;;12.10;91.50;;;;;;5012950;28;20096;-87
2021/05/16 07:20:29;;;;;;;21.48;11.75;;;12.20;91.50;;;;;;5013543;28;20050;-87
2021/05/16 07:22:54;;;;;;;18.83;8.88;;;12.20;91.40;;;;;;5013248;28;20460;-87
2021/05/16 07:25:20;;;;;;;18.27;9.77;;;12.20;91.20;;;;;;5012699;28;20042;-87
2021/05/16 07:27:47;;;;;;;14.55;9.15;;;12.20;91.10;;;;;;5013651;28;20132;-87
2021/05/16 07:30:21;;;;;;;15.40;9.43;;;12.20;91.20;;;;;;5013545;28;20056;-89
2021/05/16 07:32:48;;;;;;;15.85;10.18;;;12.10;91.20;;;;;;5013204;28;20053;-89
2021/05/16 07:35:16;;;;;;;19.23;10.77;;;12.10;91.30;;;;;;5013354;28;20496;-88
2021/05/16 07:37:43;;;;;;;17.65;10.63;;;12.20;91.40;;;;;;5013453;28;20056;-89
2021/05/16 07:40:10;;;;;;;15.73;9.93;;;12.20;91.40;;;;;;5012689;28;20077;-87
2021/05/16 07:42:36;;;;;;;17.58;9.30;;;12.20;91.40;;;;;;5013457;28;20049;-87
2021/05/16 07:45:02;;;;;;;19.00;9.93;;;12.20;91.50;;;;;;5013554;28;20046;-87
2021/05/16 07:47:28;;;;;;;14.52;7.78;;;12.20;91.50;;;;;;5012804;28;20072;-87
2021/05/16 07:49:53;;;;;;;18.20;9.30;;;12.20;91.50;;;;;;5013476;28;20046;-87
2021/05/16 07:52:19;;;;;;;15.60;8.88;;;12.30;91.40;;;;;;5015774;28;20108;-87
2021/05/16 07:54:45;;;;;;;18.42;8.93;;;12.30;91.50;;;;;;5017642;28;20046;-87
2021/05/16 07:57:11;;;;;;;19.08;8.93;;;12.30;91.50;;;;;;5017377;28;20104;-87
2021/05/16 07:59:38;;;;;;;20.98;9.15;;;12.30;91.50;;;;;;5016663;28;20435;-86
2021/05/16 08:02:07;;;;;;;20.17;9.38;;;12.40;91.60;;;;;;5017503;28;20042;-88
2021/05/16 08:04:33;;;;;;;16.35;7.82;;;12.40;91.60;;;;;;5017515;28;20482;-88
2021/05/16 08:06:59;;;;;;;14.43;6.43;;;12.50;91.60;;;;;;5016500;28;20139;-89
2021/05/16 08:09:25;;;;;;;14.60;6.57;;;12.50;91.40;;;;;;5017651;28;20096;-87
2021/05/16 08:11:51;;;;;;;12.68;4.88;;;12.60;91.40;;;;;;4999973;28;20050;-87
2021/05/16 08:14:17;;;;;;;12.60;4.20;;;12.60;91.10;;;;;;5016212;28;20103;-87
2021/05/16 08:16:43;;;;;;;11.13;4.53;;;12.70;90.80;;;;;;5017022;28;20046;-87
2021/05/16 08:19:09;;;;;;;8.23;2.92;;;12.70;90.70;;;;;;5016523;28;20566;-87
2021/05/16 08:21:38;;;;;;;7.32;2.47;;;12.80;90.50;;;;;;5015952;28;20058;-88
2021/05/16 08:24:06;;;;;;;6.53;2.55;;;12.80;90.20;;;;;;5016770;28;20045;-87
2021/05/16 08:26:32;;;;;;;7.13;2.83;;;12.80;90.00;;;;;;5016744;28;20046;-87
2021/05/16 08:28:57;;;;;;;10.20;3.42;;;12.80;89.80;;;;;;5015743;28;20042;-87
2021/05/16 08:31:23;;;;;;;8.77;3.55;;;12.80;89.90;;;;;;5016698;28;20486;-86
2021/05/16 08:33:48;;;;;;;11.45;3.17;;;12.80;90.10;;;;;;5016520;28;20057;-88
2021/05/16 08:36:14;;;;;;;9.90;3.28;;;12.80;90.30;;;;;;5015499;28;20054;-87
2021/05/16 08:38:40;;;;;;;9.48;4.32;;;12.80;90.40;;;;;;5016559;28;20046;-87
2021/05/16 08:41:06;;;;;;;7.82;3.13;;;12.80;90.50;;;;;;4998722;28;20489;-88
2021/05/16 08:43:31;;;;;;;8.88;3.60;;;12.80;90.40;;;;;;5015661;28;20053;-89
2021/05/16 08:45:57;;;;;;;8.63;3.88;;;12.80;90.40;;;;;;5016143;28;20101;-89
2021/05/16 08:48:29;;;;;;;11.38;4.13;;;12.80;90.50;;;;;;5016465;28;20375;-90
2021/05/16 08:50:57;;;;;;;11.63;3.17;;;12.80;90.60;;;;;;5016034;28;20064;-91
2021/05/16 08:53:25;;;;;;;11.38;3.50;;;12.80;90.60;;;;;;5016777;28;20060;-91
2021/05/16 08:55:51;;;;;;;7.38;3.08;;;12.70;90.60;;;;;;5015818;28;20062;-93
2021/05/16 08:58:17;;;;;;;8.30;3.50;;;12.70;90.70;;;;;;5017602;28;20053;-93
2021/05/16 09:00:45;;;;;;;7.60;3.40;;;12.70;90.80;;;;;;5017702;28;20164;-93
2021/05/16 09:03:16;;;;;;;9.55;3.10;;;12.70;91.20;;;;;;5015521;28;20108;-94
2021/05/16 09:05:51;;;;;;;8.57;3.63;;;12.70;90.90;;;;;;5017217;28;20449;-93
2021/05/16 09:08:24;;;;;;;8.90;3.53;;;12.60;90.90;;;;;;5017028;28;20042;-94
2021/05/16 09:10:57;;;;;;;9.05;3.90;;;12.70;91.00;;;;;;5016048;28;20046;-94
2021/05/16 09:13:26;;;;;;;9.60;3.50;;;12.70;91.10;;;;;;5016749;28;20070;-94
2021/05/16 09:16:13;;;;;;;9.90;4.00;;;12.60;91.20;;;;;;5017172;28;20125;-93
2021/05/16 09:18:44;;;;;;;7.63;3.30;;;12.60;91.20;;;;;;5016918;28;20050;-93
2021/05/16 09:21:33;;;;;;;9.77;4.13;;;12.60;91.30;;;;;;5019205;28;20073;-95
2021/05/16 09:24:01;;;;;;;10.80;3.97;;;12.70;91.20;;;;;;5020244;28;20077;-95
2021/05/16 09:26:38;;;;;;;10.60;4.10;;;12.60;91.40;;;;;;5019083;28;20046;-96
2021/05/16 09:29:22;;;;;;;9.43;4.32;;;12.70;91.60;;;;;;5022151;28;20046;-96
2021/05/16 09:31:49;;;;;;;11.98;5.18;;;12.70;91.80;;;;;;5024469;28;20482;-95
2021/05/16 09:34:15;;;;;;;11.13;4.70;;;12.80;92.10;;;;;;5020929;28;20050;-95
2021/05/16 09:36:45;;;;;;;9.20;4.88;;;12.90;92.20;;;;;;5020749;28;20045;-95
2021/05/16 09:39:28;;;;;;;10.18;5.22;;;13.00;92.40;;;;;;5021317;28;20049;-93
2021/05/16 09:41:54;;;;;;;6.88;4.30;;;13.10;92.30;;;;;;5019756;28;20052;-95
2021/05/16 09:44:39;;;;;;;7.47;4.57;;;13.10;92.10;;;;;;5019451;28;20053;-95
2021/05/16 09:47:28;;;;;;;8.40;3.83;;;13.20;91.80;;;;;;5018726;28;20130;-95
2021/05/16 09:49:56;;;;;;;8.00;4.10;;;13.30;91.70;;;;;;5019994;28;20123;-92
2021/05/16 09:52:27;;;;;;;6.45;3.60;;;13.40;91.50;;;;;;5020182;28;20046;-95
2021/05/16 09:55:04;;;;;;;6.75;2.85;;;13.40;91.30;;;;;;5020115;28;20049;-95
2021/05/16 09:57:38;;;;;;;4.05;2.38;;;13.40;90.90;;;;;;5019544;28;20067;-95
2021/05/16 10:00:07;;;;;;;4.93;2.33;;;13.50;90.60;;;;;;5018875;28;20049;-94
2021/05/16 10:02:33;;;;;;;4.63;2.45;;;13.50;90.70;;;;;;5018643;28;20080;-95
2021/05/16 10:05:01;;;;;;;4.80;2.30;;;13.50;90.40;;;;;;5017938;28;20046;-95
2021/05/16 10:07:29;;;;;;;4.43;2.13;;;13.50;90.30;;;;;;5018070;28;20046;-96
2021/05/16 10:09:55;;;;;;;4.25;2.08;;;13.50;90.20;;;;;;5023524;28;20477;-96
2021/05/16 10:12:23;;;;;;;4.80;1.98;;;13.50;90.20;;;;;;5017968;28;20061;-94
2021/05/16 10:15:10;;;;;;;4.32;1.73;;;13.60;90.20;;;;;;5019060;28;20142;-95
2021/05/16 10:17:41;;;;;;;5.00;2.30;;;13.60;90.10;;;;;;5025465;28;20050;-96
2021/05/16 10:20:19;;;;;;;4.88;1.98;;;13.60;90.40;;;;;;5024641;28;20481;-96
2021/05/16 10:22:56;;;;;;;5.30;1.80;;;13.60;90.30;;;;;;5023187;28;20054;-94
2021/05/16 10:25:44;;;;;;;5.55;1.85;;;13.60;90.20;;;;;;5015173;28;20056;-90
2021/05/16 10:28:17;;;;;;;3.92;1.02;;;13.60;90.20;;;;;;5014480;28;20054;-95
2021/05/16 10:31:11;;;;;;;4.53;1.85;;;13.50;89.90;;;;;;5015253;28;20053;-95
2021/05/16 10:33:39;;;;;;;3.30;1.55;;;13.50;90.00;;;;;;5016879;28;20042;-95
2021/05/16 10:36:05;;;;;;;5.43;1.60;;;13.50;90.30;;;;;;5016039;28;20054;-95
2021/05/16 10:38:40;;;;;;;3.72;1.40;;;13.50;90.30;;;;;;5016075;28;20052;-94
2021/05/16 10:41:23;;;;;;;6.57;1.60;;;13.50;90.20;;;;;;5016175;28;20061;-96
2021/05/16 10:43:49;;;;;;;4.95;1.30;;;13.50;90.20;;;;;;5016687;28;20054;-96
2021/05/16 10:46:37;;;;;;;3.42;1.42;;;13.50;90.30;;;;;;5016150;28;20187;-96
2021/05/16 10:49:21;;;;;;;4.78;1.83;;;13.50;90.50;;;;;;5019167;28;20046;-96
2021/05/16 10:51:46;;;;;;;4.32;1.92;;;13.50;90.60;;;;;;5016613;28;20465;-94
2021/05/16 10:54:34;;;;;;;5.30;1.83;;;13.50;90.90;;;;;;5015606;28;20049;-94
2021/05/16 10:57:10;;;;;;;4.25;1.70;;;13.60;90.90;;;;;;5014580;28;20054;-94
2021/05/16 10:59:38;;;;;;;6.10;1.80;;;13.60;90.90;;;;;;5015772;28;20053;-93
2021/05/16 11:02:04;;;;;;;6.30;1.40;;;13.60;91.00;;;;;;5016285;28;20125;-95
2021/05/16 11:04:50;;;;;;;4.95;1.45;;;13.60;90.50;;;;;;5015214;28;20125;-92
2021/05/16 11:07:35;;;;;;;7.00;2.00;;;13.60;90.20;;;;;;5014405;28;20116;-92
2021/05/16 11:10:27;;;;;;;5.93;1.60;;;13.50;89.70;;;;;;5013000;28;20061;-87
2021/05/16 11:12:52;;;;;;;6.75;1.50;;;13.40;90.30;;;;;;5013915;28;20113;-87
2021/05/16 11:15:27;;;;;;;5.43;1.50;;;13.40;90.30;;;;;;5013827;28;20042;-86
2021/05/16 11:17:53;;;;;;;4.35;1.17;;;13.40;90.30;;;;;;5012586;28;20057;-86
2021/05/16 11:20:19;;;;;;;3.67;0.90;;;13.30;90.40;;;;;;5013597;28;20487;-87
2021/05/16 11:22:45;;;;;;;3.28;1.15;;;13.30;90.10;;;;;;5013392;28;20107;-87
2021/05/16 11:25:10;;;;;;;2.25;0.80;;;13.20;90.40;;;;;;5012377;28;20133;-90
2021/05/16 11:27:36;;;;;;;4.57;1.10;;;13.20;90.40;;;;;;5013344;28;20060;-90
2021/05/16 11:30:11;;;;;;;3.60;1.02;;;13.10;90.60;;;;;;5013894;28;20050;-89
2021/05/16 11:32:37;;;;;;;3.63;0.90;;;13.10;90.90;;;;;;5013050;28;20133;-90
2021/05/16 11:35:09;;;;;;;4.78;1.20;;;13.20;90.90;;;;;;5013986;28;20072;-91
2021/05/16 11:37:35;;;;;;;2.90;0.98;;;13.20;90.80;;;;;;5013625;28;20133;-91
2021/05/16 11:40:13;;;;;;;4.00;1.20;;;13.20;90.80;;;;;;5014187;28;20042;-91
2021/05/16 11:42:40;;;;;;;2.95;0.90;;;13.30;91.10;;;;;;5014441;28;20054;-91
2021/05/16 11:45:07;;;;;;;4.10;1.05;;;13.40;90.90;;;;;;5013528;28;20046;-93
2021/05/16 11:47:37;;;;;;;3.90;0.98;;;13.50;90.80;;;;;;5014242;28;20084;-92
2021/05/16 11:50:08;;;;;;;2.92;0.80;;;13.50;90.50;;;;;;5015000;28;20195;-93
2021/05/16 11:52:34;;;;;;;4.65;1.23;;;13.60;90.40;;;;;;5016318;28;20410;-93
2021/05/16 11:55:11;;;;;;;3.67;0.90;;;13.60;90.40;;;;;;5021302;28;20050;-93
2021/05/16 11:57:42;;;;;;;4.65;1.10;;;13.70;90.40;;;;;;5014806;28;20056;-94
2021/05/16 12:00:10;;;;;;;4.18;1.00;;;13.80;90.20;;;;;;5015528;28;20486;-93
2021/05/16 12:02:37;;;;;;;5.55;1.23;;;13.80;90.00;;;;;;5017128;28;20046;-93
2021/05/16 12:05:03;;;;;;;5.75;1.30;;;13.90;89.40;;;;;;5020202;28;20069;-96
2021/05/16 12:07:29;;;;;;;3.03;1.10;;;13.90;89.40;;;;;;5019267;28;20053;-93
2021/05/16 12:09:55;;;;;;;3.88;1.17;;;13.90;89.10;;;;;;5017001;28;20046;-94
2021/05/16 12:12:23;;;;;;;6.38;1.40;;;13.90;89.20;;;;;;5019730;28;20100;-94
2021/05/16 12:14:50;;;;;;;5.72;1.25;;;14.00;89.60;;;;;;5019840;28;20042;-94
2021/05/16 12:17:16;;;;;;;5.57;1.35;;;14.00;89.10;;;;;;5019769;28;20045;-94
2021/05/16 12:19:42;;;;;;;7.00;1.55;;;14.10;89.40;;;;;;5017620;28;20149;-93
2021/05/16 12:22:12;;;;;;;5.55;1.10;;;14.10;89.40;;;;;;5017614;28;20049;-94
2021/05/16 12:24:46;;;;;;;4.15;1.00;;;14.20;87.90;;;;;;5019226;28;20057;-94
2021/05/16 12:27:19;;;;;;;3.72;0.90;;;14.30;87.10;;;;;;5022933;28;20129;-95
2021/05/16 12:29:47;;;;;;;;;;;14.30;87.10;;;;;;5021178;28;20053;-94
2021/05/16 12:32:20;;;;;;;4.47;0.88;;;14.30;86.10;;;;;;5018142;28;19921;-95
2021/05/16 12:34:46;;;;;;;3.58;0.73;;;14.40;86.00;;;;;;5021412;28;20049;-94
2021/05/16 12:37:17;;;;;;;4.97;1.00;;;14.30;84.90;;;;;;5018865;28;20057;-95
2021/05/16 12:39:48;;;;;;;2.83;0.80;;;14.40;84.10;;;;;;5023012;28;20050;-94
2021/05/16 12:42:41;;;;;;;2.70;0.70;;;14.40;84.50;;;;;;5020502;28;20046;-92